sensor_id;sensor_type;location;lat;lon;timestamp;pressure;altitude;pressure_sealevel;temperature;humidity
41862;BME280;27537;57.134;-2.136;2023-03-03T00:01:28;102611.88;;;5.62;100.00
41862;BME280;27537;57.134;-2.136;2023-03-03T00:03:56;102563.00;;;5.31;100.00
41862;BME280;27537;57.134;-2.136;2023-03-03T00:06:22;102597.78;;;5.44;100.00
41862;BME280;27537;57.134;-2.136;2023-03-03T00:08:50;102587.31;;;5.40;100.00
41862;BME280;27537;57.134;-2.136;2023-03-03T00:11:17;102594.28;;;5.41;100.00
41862;BME280;27537;57.134;-2.136;2023-03-03T00:13:53;102555.06;;;5.22;100.00
41862;BME280;27537;57.134;-2.136;2023-03-03T00:18:51;102524.56;;;5.07;100.00
41862;BME280;27537;57.134;-2.136;2023-03-03T00:26:38;102625.72;;;5.61;100.00
41862;BME280;27537;57.134;-2.136;2023-03-03T00:29:29;102623.06;;;5.55;100.00
41862;BME280;27537;57.134;-2.136;2023-03-03T00:32:37;102632.56;;;5.56;100.00
41862;BME280;27537;57.134;-2.136;2023-03-03T00:35:28;102555.75;;;5.09;100.00
41862;BME280;27537;57.134;-2.136;2023-03-03T00:38:00;102629.91;;;5.49;100.00
41862;BME280;27537;57.134;-2.136;2023-03-03T00:40:34;102554.56;;;4.88;100.00
41862;BME280;27537;57.134;-2.136;2023-03-03T00:43:14;102618.47;;;5.38;100.00
41862;BME280;27537;57.134;-2.136;2023-03-03T00:45:56;102616.69;;;5.34;100.00
41862;BME280;27537;57.134;-2.136;2023-03-03T00:51:28;102621.94;;;5.37;100.00
41862;BME280;27537;57.134;-2.136;2023-03-03T00:53:56;102613.13;;;5.27;100.00
41862;BME280;27537;57.134;-2.136;2023-03-03T00:56:23;102624.25;;;5.17;100.00
41862;BME280;27537;57.134;-2.136;2023-03-03T00:58:50;102558.00;;;4.86;100.00
41862;BME280;27537;57.134;-2.136;2023-03-03T01:01:17;102620.00;;;5.24;100.00
41862;BME280;27537;57.134;-2.136;2023-03-03T01:03:44;102564.91;;;4.84;100.00
41862;BME280;27537;57.134;-2.136;2023-03-03T01:06:11;102549.91;;;4.66;100.00
41862;BME280;27537;57.134;-2.136;2023-03-03T01:08:39;102554.34;;;4.74;100.00
41862;BME280;27537;57.134;-2.136;2023-03-03T01:11:12;102580.56;;;4.90;100.00
41862;BME280;27537;57.134;-2.136;2023-03-03T01:13:43;102586.56;;;4.86;100.00
41862;BME280;27537;57.134;-2.136;2023-03-03T01:16:11;102577.03;;;4.86;100.00
41862;BME280;27537;57.134;-2.136;2023-03-03T01:18:39;102607.72;;;5.10;100.00
41862;BME280;27537;57.134;-2.136;2023-03-03T01:21:08;102557.09;;;4.82;100.00
41862;BME280;27537;57.134;-2.136;2023-03-03T01:23:34;102587.66;;;5.02;100.00
41862;BME280;27537;57.134;-2.136;2023-03-03T01:26:02;102560.41;;;4.73;100.00
41862;BME280;27537;57.134;-2.136;2023-03-03T01:28:29;102559.63;;;4.79;100.00
41862;BME280;27537;57.134;-2.136;2023-03-03T01:31:00;102576.28;;;4.93;100.00
41862;BME280;27537;57.134;-2.136;2023-03-03T01:33:28;102556.22;;;4.82;100.00
41862;BME280;27537;57.134;-2.136;2023-03-03T01:35:57;102602.25;;;4.93;100.00
41862;BME280;27537;57.134;-2.136;2023-03-03T01:38:23;102625.97;;;5.17;100.00
41862;BME280;27537;57.134;-2.136;2023-03-03T01:40:58;102621.69;;;5.20;100.00
41862;BME280;27537;57.134;-2.136;2023-03-03T01:43:26;102547.34;;;4.69;100.00
41862;BME280;27537;57.134;-2.136;2023-03-03T01:48:33;102622.53;;;5.18;100.00
41862;BME280;27537;57.134;-2.136;2023-03-03T01:51:04;102580.41;;;4.81;100.00
41862;BME280;27537;57.134;-2.136;2023-03-03T01:53:42;102534.31;;;4.64;100.00
41862;BME280;27537;57.134;-2.136;2023-03-03T01:56:10;102591.94;;;4.98;100.00
41862;BME280;27537;57.134;-2.136;2023-03-03T01:58:42;102627.56;;;5.07;100.00
41862;BME280;27537;57.134;-2.136;2023-03-03T02:01:13;102618.97;;;5.11;100.00
41862;BME280;27537;57.134;-2.136;2023-03-03T02:03:42;102541.09;;;4.56;100.00
41862;BME280;27537;57.134;-2.136;2023-03-03T02:06:12;102560.47;;;4.77;100.00
41862;BME280;27537;57.134;-2.136;2023-03-03T02:08:47;102535.09;;;4.60;100.00
41862;BME280;27537;57.134;-2.136;2023-03-03T02:11:17;102581.41;;;4.90;100.00
41862;BME280;27537;57.134;-2.136;2023-03-03T02:13:45;102541.19;;;4.61;100.00
41862;BME280;27537;57.134;-2.136;2023-03-03T02:16:11;102544.53;;;4.53;100.00
41862;BME280;27537;57.134;-2.136;2023-03-03T02:18:38;102573.44;;;4.77;100.00
41862;BME280;27537;57.134;-2.136;2023-03-03T02:21:13;102610.28;;;5.09;100.00
41862;BME280;27537;57.134;-2.136;2023-03-03T02:26:32;102588.59;;;5.05;100.00
41862;BME280;27537;57.134;-2.136;2023-03-03T02:28:59;102528.25;;;4.64;100.00
41862;BME280;27537;57.134;-2.136;2023-03-03T02:31:28;102547.50;;;4.77;100.00
41862;BME280;27537;57.134;-2.136;2023-03-03T02:33:55;102569.00;;;4.69;100.00
41862;BME280;27537;57.134;-2.136;2023-03-03T02:36:26;102574.50;;;4.89;100.00
41862;BME280;27537;57.134;-2.136;2023-03-03T02:39:16;102605.91;;;5.05;100.00
41862;BME280;27537;57.134;-2.136;2023-03-03T02:41:54;102550.13;;;4.78;100.00
41862;BME280;27537;57.134;-2.136;2023-03-03T02:44:29;102596.25;;;4.96;100.00
41862;BME280;27537;57.134;-2.136;2023-03-03T02:46:57;102530.03;;;4.66;100.00
41862;BME280;27537;57.134;-2.136;2023-03-03T02:49:26;102503.81;;;4.49;100.00
41862;BME280;27537;57.134;-2.136;2023-03-03T02:51:54;102512.50;;;4.53;100.00
41862;BME280;27537;57.134;-2.136;2023-03-03T02:54:23;102534.38;;;4.69;100.00
41862;BME280;27537;57.134;-2.136;2023-03-03T02:56:50;102599.03;;;5.11;100.00
41862;BME280;27537;57.134;-2.136;2023-03-03T02:59:24;102509.69;;;4.39;100.00
41862;BME280;27537;57.134;-2.136;2023-03-03T03:01:51;102563.16;;;4.84;100.00
41862;BME280;27537;57.134;-2.136;2023-03-03T03:04:20;102569.38;;;4.95;100.00
41862;BME280;27537;57.134;-2.136;2023-03-03T03:06:48;102572.84;;;4.94;100.00
41862;BME280;27537;57.134;-2.136;2023-03-03T03:09:16;102585.06;;;5.02;100.00
41862;BME280;27537;57.134;-2.136;2023-03-03T03:11:43;102534.38;;;4.69;100.00
41862;BME280;27537;57.134;-2.136;2023-03-03T03:14:11;102566.53;;;4.77;100.00
41862;BME280;27537;57.134;-2.136;2023-03-03T03:16:39;102531.00;;;4.73;100.00
41862;BME280;27537;57.134;-2.136;2023-03-03T03:19:06;102518.78;;;4.66;100.00
41862;BME280;27537;57.134;-2.136;2023-03-03T03:21:33;102548.47;;;4.85;100.00
41862;BME280;27537;57.134;-2.136;2023-03-03T03:24:00;102561.59;;;4.94;100.00
41862;BME280;27537;57.134;-2.136;2023-03-03T03:26:27;102591.16;;;5.04;100.00
41862;BME280;27537;57.134;-2.136;2023-03-03T03:28:54;102510.88;;;4.60;100.00
41862;BME280;27537;57.134;-2.136;2023-03-03T03:31:21;102574.56;;;4.95;100.00
41862;BME280;27537;57.134;-2.136;2023-03-03T03:33:48;102520.53;;;4.68;100.00
41862;BME280;27537;57.134;-2.136;2023-03-03T03:36:15;102524.00;;;4.69;100.00
41862;BME280;27537;57.134;-2.136;2023-03-03T03:38:43;102548.50;;;4.86;100.00
41862;BME280;27537;57.134;-2.136;2023-03-03T03:41:10;102546.56;;;4.73;100.00
41862;BME280;27537;57.134;-2.136;2023-03-03T03:43:37;102517.84;;;4.64;100.00
41862;BME280;27537;57.134;-2.136;2023-03-03T03:46:04;102581.75;;;5.10;100.00
41862;BME280;27537;57.134;-2.136;2023-03-03T03:48:31;102565.19;;;5.04;100.00
41862;BME280;27537;57.134;-2.136;2023-03-03T03:50:58;102601.81;;;5.22;100.00
41862;BME280;27537;57.134;-2.136;2023-03-03T03:53:25;102586.00;;;5.07;100.00
41862;BME280;27537;57.134;-2.136;2023-03-03T03:55:52;102568.56;;;4.98;100.00
41862;BME280;27537;57.134;-2.136;2023-03-03T03:58:19;102523.97;;;4.66;100.00
41862;BME280;27537;57.134;-2.136;2023-03-03T04:00:46;102595.50;;;5.06;100.00
41862;BME280;27537;57.134;-2.136;2023-03-03T04:03:14;102566.78;;;4.94;100.00
41862;BME280;27537;57.134;-2.136;2023-03-03T04:05:41;102526.69;;;4.75;100.00
41862;BME280;27537;57.134;-2.136;2023-03-03T04:08:08;102594.97;;;5.26;100.00
41862;BME280;27537;57.134;-2.136;2023-03-03T04:10:35;102545.03;;;4.86;100.00
41862;BME280;27537;57.134;-2.136;2023-03-03T04:13:02;102518.06;;;4.76;100.00
41862;BME280;27537;57.134;-2.136;2023-03-03T04:15:29;102532.84;;;4.80;100.00
41862;BME280;27537;57.134;-2.136;2023-03-03T04:17:56;102565.22;;;5.05;100.00
41862;BME280;27537;57.134;-2.136;2023-03-03T04:20:23;102547.88;;;5.04;100.00
41862;BME280;27537;57.134;-2.136;2023-03-03T04:22:49;102500.75;;;4.75;100.00
41862;BME280;27537;57.134;-2.136;2023-03-03T04:25:16;102568.00;;;5.18;100.00
41862;BME280;27537;57.134;-2.136;2023-03-03T04:27:43;102539.06;;;4.93;100.00
41862;BME280;27537;57.134;-2.136;2023-03-03T04:30:11;102592.28;;;5.21;100.00
41862;BME280;27537;57.134;-2.136;2023-03-03T04:32:39;102521.47;;;4.72;100.00
41862;BME280;27537;57.134;-2.136;2023-03-03T04:35:06;102525.06;;;4.80;100.00
41862;BME280;27537;57.134;-2.136;2023-03-03T04:37:34;102543.41;;;4.92;100.00
41862;BME280;27537;57.134;-2.136;2023-03-03T04:40:01;102556.56;;;5.05;100.00
41862;BME280;27537;57.134;-2.136;2023-03-03T04:42:28;102593.28;;;5.29;100.00
41862;BME280;27537;57.134;-2.136;2023-03-03T04:44:55;102580.19;;;5.23;100.00
41862;BME280;27537;57.134;-2.136;2023-03-03T04:47:22;102589.78;;;5.29;100.00
41862;BME280;27537;57.134;-2.136;2023-03-03T04:49:48;102547.16;;;5.14;100.00
41862;BME280;27537;57.134;-2.136;2023-03-03T04:52:15;102525.34;;;5.02;100.00
41862;BME280;27537;57.134;-2.136;2023-03-03T04:54:42;102528.78;;;4.98;100.00
41862;BME280;27537;57.134;-2.136;2023-03-03T04:57:09;102521.09;;;5.05;100.00
41862;BME280;27537;57.134;-2.136;2023-03-03T04:59:35;102528.84;;;5.04;100.00
41862;BME280;27537;57.134;-2.136;2023-03-03T05:02:03;102595.16;;;5.41;100.00
41862;BME280;27537;57.134;-2.136;2023-03-03T05:04:31;102600.34;;;5.41;100.00
41862;BME280;27537;57.134;-2.136;2023-03-03T05:06:58;102600.31;;;5.40;100.00
41862;BME280;27537;57.134;-2.136;2023-03-03T05:09:24;102544.44;;;5.05;100.00
41862;BME280;27537;57.134;-2.136;2023-03-03T05:11:51;102550.56;;;5.09;100.00
41862;BME280;27537;57.134;-2.136;2023-03-03T05:14:19;102609.13;;;5.49;100.00
41862;BME280;27537;57.134;-2.136;2023-03-03T05:16:46;102532.22;;;4.98;100.00
41862;BME280;27537;57.134;-2.136;2023-03-03T05:19:13;102514.97;;;5.02;100.00
41862;BME280;27537;57.134;-2.136;2023-03-03T05:21:39;102534.03;;;5.04;100.00
41862;BME280;27537;57.134;-2.136;2023-03-03T05:24:12;102606.53;;;5.49;100.00
41862;BME280;27537;57.134;-2.136;2023-03-03T05:26:39;102570.72;;;5.27;100.00
41862;BME280;27537;57.134;-2.136;2023-03-03T05:29:07;102584.63;;;5.32;100.00
41862;BME280;27537;57.134;-2.136;2023-03-03T05:31:34;102567.16;;;5.22;100.00
41862;BME280;27537;57.134;-2.136;2023-03-03T05:34:01;102555.06;;;5.21;100.00
41862;BME280;27537;57.134;-2.136;2023-03-03T05:36:28;102512.34;;;5.00;100.00
41862;BME280;27537;57.134;-2.136;2023-03-03T05:38:55;102534.00;;;5.02;100.00
41862;BME280;27537;57.134;-2.136;2023-03-03T05:41:22;102611.75;;;5.51;100.00
41862;BME280;27537;57.134;-2.136;2023-03-03T05:43:49;102516.66;;;4.98;100.00
41862;BME280;27537;57.134;-2.136;2023-03-03T05:46:15;102525.38;;;5.03;100.00
41862;BME280;27537;57.134;-2.136;2023-03-03T05:48:42;102558.47;;;5.18;100.00
41862;BME280;27537;57.134;-2.136;2023-03-03T05:51:09;102603.81;;;5.43;100.00
41862;BME280;27537;57.134;-2.136;2023-03-03T05:53:36;102541.00;;;5.05;100.00
41862;BME280;27537;57.134;-2.136;2023-03-03T05:56:03;102604.69;;;5.41;100.00
41862;BME280;27537;57.134;-2.136;2023-03-03T05:58:30;102573.22;;;5.22;100.00
41862;BME280;27537;57.134;-2.136;2023-03-03T06:00:57;102526.13;;;4.94;100.00
41862;BME280;27537;57.134;-2.136;2023-03-03T06:03:23;102532.19;;;4.97;100.00
41862;BME280;27537;57.134;-2.136;2023-03-03T06:05:50;102543.59;;;5.05;100.00
41862;BME280;27537;57.134;-2.136;2023-03-03T06:08:17;102561.00;;;5.12;100.00
41862;BME280;27537;57.134;-2.136;2023-03-03T06:10:43;102539.06;;;4.91;100.00
41862;BME280;27537;57.134;-2.136;2023-03-03T06:13:10;102605.50;;;5.38;100.00
41862;BME280;27537;57.134;-2.136;2023-03-03T06:15:37;102546.09;;;5.00;100.00
41862;BME280;27537;57.134;-2.136;2023-03-03T06:18:04;102576.63;;;5.17;100.00
41862;BME280;27537;57.134;-2.136;2023-03-03T06:20:31;102535.66;;;4.97;100.00
41862;BME280;27537;57.134;-2.136;2023-03-03T06:22:58;102585.38;;;5.23;100.00
41862;BME280;27537;57.134;-2.136;2023-03-03T06:25:25;102546.19;;;5.05;100.00
41862;BME280;27537;57.134;-2.136;2023-03-03T06:27:52;102574.00;;;5.13;100.00
41862;BME280;27537;57.134;-2.136;2023-03-03T06:30:19;102554.81;;;5.04;100.00
41862;BME280;27537;57.134;-2.136;2023-03-03T06:32:45;102549.56;;;5.01;100.00
41862;BME280;27537;57.134;-2.136;2023-03-03T06:35:12;102549.50;;;4.96;100.00
41862;BME280;27537;57.134;-2.136;2023-03-03T06:37:39;102583.56;;;5.18;100.00
41862;BME280;27537;57.134;-2.136;2023-03-03T06:40:06;102566.94;;;5.05;100.00
41862;BME280;27537;57.134;-2.136;2023-03-03T06:42:33;102581.06;;;5.24;100.00
41862;BME280;27537;57.134;-2.136;2023-03-03T06:45:00;102613.34;;;5.41;100.00
41862;BME280;27537;57.134;-2.136;2023-03-03T06:47:26;102548.63;;;4.95;100.00
41862;BME280;27537;57.134;-2.136;2023-03-03T06:49:53;102621.13;;;5.41;100.00
41862;BME280;27537;57.134;-2.136;2023-03-03T06:52:23;102611.59;;;5.40;100.00
41862;BME280;27537;57.134;-2.136;2023-03-03T06:54:53;102586.22;;;5.21;100.00
41862;BME280;27537;57.134;-2.136;2023-03-03T06:57:25;102623.78;;;5.44;100.00
41862;BME280;27537;57.134;-2.136;2023-03-03T06:59:56;102584.41;;;5.17;100.00
41862;BME280;27537;57.134;-2.136;2023-03-03T07:02:23;102537.28;;;4.90;100.00
41862;BME280;27537;57.134;-2.136;2023-03-03T07:04:50;102610.59;;;5.30;100.00
41862;BME280;27537;57.134;-2.136;2023-03-03T07:07:21;102633.41;;;5.51;100.00
41862;BME280;27537;57.134;-2.136;2023-03-03T07:09:55;102613.16;;;5.29;100.00
41862;BME280;27537;57.134;-2.136;2023-03-03T07:12:24;102641.25;;;5.55;100.00
41862;BME280;27537;57.134;-2.136;2023-03-03T07:17:25;102558.25;;;5.01;100.00
41862;BME280;27537;57.134;-2.136;2023-03-03T07:19:52;102594.00;;;5.19;100.00
41862;BME280;27537;57.134;-2.136;2023-03-03T07:22:22;102567.72;;;4.99;100.00
41862;BME280;27537;57.134;-2.136;2023-03-03T07:24:56;102608.84;;;5.28;100.00
41862;BME280;27537;57.134;-2.136;2023-03-03T07:27:28;102587.81;;;5.12;100.00
41862;BME280;27537;57.134;-2.136;2023-03-03T07:30:25;102651.59;;;5.51;100.00
41862;BME280;27537;57.134;-2.136;2023-03-03T07:32:54;102617.56;;;5.35;100.00
41862;BME280;27537;57.134;-2.136;2023-03-03T07:35:38;102581.78;;;5.13;100.00
41862;BME280;27537;57.134;-2.136;2023-03-03T07:40:53;102588.78;;;5.19;100.00
41862;BME280;27537;57.134;-2.136;2023-03-03T07:43:36;102580.13;;;5.20;100.00
41862;BME280;27537;57.134;-2.136;2023-03-03T07:48:37;102626.44;;;5.50;100.00
41862;BME280;27537;57.134;-2.136;2023-03-03T07:51:22;102626.47;;;5.52;100.00
41862;BME280;27537;57.134;-2.136;2023-03-03T07:54:16;102662.41;;;5.81;100.00
41862;BME280;27537;57.134;-2.136;2023-03-03T07:56:48;102576.59;;;5.15;100.00
41862;BME280;27537;57.134;-2.136;2023-03-03T07:59:23;102587.13;;;5.24;100.00
41862;BME280;27537;57.134;-2.136;2023-03-03T08:01:53;102612.50;;;5.42;100.00
41862;BME280;27537;57.134;-2.136;2023-03-03T08:04:40;102649.22;;;5.70;100.00
41862;BME280;27537;57.134;-2.136;2023-03-03T08:07:16;102636.88;;;5.52;100.00
41862;BME280;27537;57.134;-2.136;2023-03-03T08:09:46;102603.81;;;5.42;100.00
41862;BME280;27537;57.134;-2.136;2023-03-03T08:15:17;102650.19;;;5.77;100.00
41862;BME280;27537;57.134;-2.136;2023-03-03T08:17:45;102632.69;;;5.63;100.00
41862;BME280;27537;57.134;-2.136;2023-03-03T08:22:54;102611.88;;;5.60;100.00
41862;BME280;27537;57.134;-2.136;2023-03-03T08:25:21;102612.94;;;5.78;100.00
41862;BME280;27537;57.134;-2.136;2023-03-03T08:27:48;102619.06;;;5.81;100.00
41862;BME280;27537;57.134;-2.136;2023-03-03T08:30:15;102635.69;;;5.94;100.00
41862;BME280;27537;57.134;-2.136;2023-03-03T08:32:41;102623.44;;;5.85;100.00
41862;BME280;27537;57.134;-2.136;2023-03-03T08:35:09;102609.53;;;5.82;100.00
41862;BME280;27537;57.134;-2.136;2023-03-03T08:37:35;102669.75;;;6.13;100.00
41862;BME280;27537;57.134;-2.136;2023-03-03T08:40:02;102644.31;;;5.90;100.00
41862;BME280;27537;57.134;-2.136;2023-03-03T08:42:29;102642.53;;;5.87;100.00
41862;BME280;27537;57.134;-2.136;2023-03-03T08:44:56;102600.81;;;5.78;100.00
41862;BME280;27537;57.134;-2.136;2023-03-03T08:47:23;102641.69;;;5.88;100.00
41862;BME280;27537;57.134;-2.136;2023-03-03T08:49:50;102624.31;;;5.84;100.00
41862;BME280;27537;57.134;-2.136;2023-03-03T08:52:17;102596.34;;;5.68;100.00
41862;BME280;27537;57.134;-2.136;2023-03-03T08:54:43;102649.00;;;6.19;100.00
41862;BME280;27537;57.134;-2.136;2023-03-03T08:57:11;102682.88;;;6.23;100.00
41862;BME280;27537;57.134;-2.136;2023-03-03T08:59:38;102664.53;;;6.11;100.00
41862;BME280;27537;57.134;-2.136;2023-03-03T09:02:05;102623.50;;;5.93;100.00
41862;BME280;27537;57.134;-2.136;2023-03-03T09:04:33;102670.63;;;6.15;100.00
41862;BME280;27537;57.134;-2.136;2023-03-03T09:07:00;102623.53;;;5.92;100.00
41862;BME280;27537;57.134;-2.136;2023-03-03T09:09:26;102675.03;;;6.20;100.00
41862;BME280;27537;57.134;-2.136;2023-03-03T09:12:13;102671.66;;;6.29;100.00
41862;BME280;27537;57.134;-2.136;2023-03-03T09:14:40;102676.97;;;6.38;100.00
41862;BME280;27537;57.134;-2.136;2023-03-03T09:17:23;102656.88;;;6.26;100.00
41862;BME280;27537;57.134;-2.136;2023-03-03T09:19:54;102675.16;;;6.31;100.00
41862;BME280;27537;57.134;-2.136;2023-03-03T09:22:24;102640.28;;;6.14;100.00
41862;BME280;27537;57.134;-2.136;2023-03-03T09:24:54;102617.66;;;6.06;100.00
41862;BME280;27537;57.134;-2.136;2023-03-03T09:27:30;102657.53;;;6.07;100.00
41862;BME280;27537;57.134;-2.136;2023-03-03T09:30:02;102619.88;;;5.77;100.00
41862;BME280;27537;57.134;-2.136;2023-03-03T09:32:37;102627.69;;;5.77;100.00
41862;BME280;27537;57.134;-2.136;2023-03-03T09:35:32;102706.03;;;6.03;100.00
41862;BME280;27537;57.134;-2.136;2023-03-03T09:43:25;102656.47;;;5.94;100.00
41862;BME280;27537;57.134;-2.136;2023-03-03T09:49:39;102698.38;;;6.13;100.00
41862;BME280;27537;57.134;-2.136;2023-03-03T09:52:07;102679.88;;;5.94;100.00
41862;BME280;27537;57.134;-2.136;2023-03-03T10:05:55;102720.16;;;6.24;100.00
41862;BME280;27537;57.134;-2.136;2023-03-03T10:11:22;102642.44;;;5.80;100.00
41862;BME280;27537;57.134;-2.136;2023-03-03T10:23:03;102649.53;;;5.95;100.00
41862;BME280;27537;57.134;-2.136;2023-03-03T10:40:00;102708.47;;;6.64;100.00
41862;BME280;27537;57.134;-2.136;2023-03-03T10:43:02;102682.22;;;6.43;100.00
41862;BME280;27537;57.134;-2.136;2023-03-03T10:51:30;102701.63;;;6.74;100.00
41862;BME280;27537;57.134;-2.136;2023-03-03T10:57:04;102706.94;;;6.83;100.00
41862;BME280;27537;57.134;-2.136;2023-03-03T11:05:31;102675.81;;;7.00;100.00
41862;BME280;27537;57.134;-2.136;2023-03-03T11:08:07;102670.50;;;6.88;100.00
41862;BME280;27537;57.134;-2.136;2023-03-03T11:36:26;102632.44;;;7.04;100.00
41862;BME280;27537;57.134;-2.136;2023-03-03T11:39:08;102649.13;;;7.26;100.00
41862;BME280;27537;57.134;-2.136;2023-03-03T11:44:28;102688.28;;;7.43;100.00
41862;BME280;27537;57.134;-2.136;2023-03-03T11:50:07;102674.47;;;7.53;100.00
41862;BME280;27537;57.134;-2.136;2023-03-03T11:52:47;102612.69;;;7.37;100.00
41862;BME280;27537;57.134;-2.136;2023-03-03T11:58:19;102678.06;;;7.74;100.00
41862;BME280;27537;57.134;-2.136;2023-03-03T12:00:54;102646.66;;;7.49;100.00
41862;BME280;27537;57.134;-2.136;2023-03-03T12:09:14;102682.47;;;7.89;100.00
41862;BME280;27537;57.134;-2.136;2023-03-03T12:12:11;102654.53;;;7.62;100.00
41862;BME280;27537;57.134;-2.136;2023-03-03T12:25:46;102599.59;;;7.25;100.00
41862;BME280;27537;57.134;-2.136;2023-03-03T12:29:02;102658.88;;;7.58;100.00
41862;BME280;27537;57.134;-2.136;2023-03-03T12:47:28;102587.66;;;7.79;100.00
41862;BME280;27537;57.134;-2.136;2023-03-03T13:01:11;102641.66;;;8.03;100.00
41862;BME280;27537;57.134;-2.136;2023-03-03T13:03:52;102641.63;;;7.86;100.00
41862;BME280;27537;57.134;-2.136;2023-03-03T13:11:58;102588.50;;;7.64;100.00
41862;BME280;27537;57.134;-2.136;2023-03-03T13:14:40;102642.41;;;7.67;100.00
41862;BME280;27537;57.134;-2.136;2023-03-03T13:19:53;102599.78;;;7.65;100.00
41862;BME280;27537;57.134;-2.136;2023-03-03T13:25:31;102600.69;;;7.67;100.00
41862;BME280;27537;57.134;-2.136;2023-03-03T13:28:27;102631.16;;;7.82;100.00
41862;BME280;27537;57.134;-2.136;2023-03-03T13:31:32;102635.53;;;7.95;100.00
41862;BME280;27537;57.134;-2.136;2023-03-03T13:34:01;102550.16;;;7.43;100.00
41862;BME280;27537;57.134;-2.136;2023-03-03T13:36:41;102580.69;;;7.73;100.00
41862;BME280;27537;57.134;-2.136;2023-03-03T13:39:24;102548.41;;;7.37;100.00
41862;BME280;27537;57.134;-2.136;2023-03-03T13:42:08;102598.00;;;7.51;100.00
41862;BME280;27537;57.134;-2.136;2023-03-03T13:44:42;102598.81;;;7.43;100.00
41862;BME280;27537;57.134;-2.136;2023-03-03T13:52:33;102602.50;;;7.86;100.00
41862;BME280;27537;57.134;-2.136;2023-03-03T13:55:19;102604.25;;;7.90;100.00
41862;BME280;27537;57.134;-2.136;2023-03-03T14:05:48;102564.06;;;7.40;100.00
41862;BME280;27537;57.134;-2.136;2023-03-03T14:08:41;102599.75;;;7.51;100.00
41862;BME280;27537;57.134;-2.136;2023-03-03T14:11:25;102573.69;;;7.58;100.00
41862;BME280;27537;57.134;-2.136;2023-03-03T14:17:03;102514.50;;;7.30;100.00
41862;BME280;27537;57.134;-2.136;2023-03-03T14:19:39;102572.06;;;7.87;100.00
41862;BME280;27537;57.134;-2.136;2023-03-03T14:25:03;102556.44;;;7.88;100.00
41862;BME280;27537;57.134;-2.136;2023-03-03T14:30:31;102579.03;;;7.86;100.00
41862;BME280;27537;57.134;-2.136;2023-03-03T14:35:41;102555.44;;;7.51;100.00
41862;BME280;27537;57.134;-2.136;2023-03-03T14:38:15;102578.88;;;7.52;100.00
41862;BME280;27537;57.134;-2.136;2023-03-03T14:40:46;102531.84;;;7.23;100.00
41862;BME280;27537;57.134;-2.136;2023-03-03T14:43:33;102517.13;;;7.37;100.00
41862;BME280;27537;57.134;-2.136;2023-03-03T14:46:32;102518.78;;;7.18;100.00
41862;BME280;27537;57.134;-2.136;2023-03-03T14:49:03;102402.06;;;6.42;100.00
41862;BME280;27537;57.134;-2.136;2023-03-03T14:51:45;102475.31;;;7.03;100.00
41862;BME280;27537;57.134;-2.136;2023-03-03T14:54:23;102517.03;;;7.16;100.00
41862;BME280;27537;57.134;-2.136;2023-03-03T14:57:02;102496.22;;;7.19;100.00
41862;BME280;27537;57.134;-2.136;2023-03-03T14:59:35;102439.47;;;6.59;100.00
41862;BME280;27537;57.134;-2.136;2023-03-03T15:02:39;102564.13;;;7.51;100.00
41862;BME280;27537;57.134;-2.136;2023-03-03T15:07:43;102505.84;;;7.34;100.00
41862;BME280;27537;57.134;-2.136;2023-03-03T15:10:10;102516.97;;;7.02;100.00
41862;BME280;27537;57.134;-2.136;2023-03-03T15:12:40;102539.66;;;7.25;100.00
41862;BME280;27537;57.134;-2.136;2023-03-03T15:15:19;102567.50;;;7.36;100.00
41862;BME280;27537;57.134;-2.136;2023-03-03T15:22:50;102537.00;;;7.17;100.00
41862;BME280;27537;57.134;-2.136;2023-03-03T15:25:38;102515.09;;;6.81;100.00
41862;BME280;27537;57.134;-2.136;2023-03-03T15:28:44;102560.50;;;7.29;100.00
41862;BME280;27537;57.134;-2.136;2023-03-03T15:42:48;102544.00;;;7.22;100.00
41862;BME280;27537;57.134;-2.136;2023-03-03T15:45:26;102557.03;;;7.22;100.00
41862;BME280;27537;57.134;-2.136;2023-03-03T15:48:22;102563.06;;;7.18;100.00
41862;BME280;27537;57.134;-2.136;2023-03-03T15:51:21;102561.31;;;7.16;100.00
41862;BME280;27537;57.134;-2.136;2023-03-03T15:55:09;102557.81;;;7.09;100.00
41862;BME280;27537;57.134;-2.136;2023-03-03T15:57:39;102556.22;;;7.37;100.00
41862;BME280;27537;57.134;-2.136;2023-03-03T16:03:11;102555.25;;;7.14;100.00
41862;BME280;27537;57.134;-2.136;2023-03-03T16:05:45;102557.78;;;7.06;100.00
41862;BME280;27537;57.134;-2.136;2023-03-03T16:08:16;102560.38;;;7.04;100.00
41862;BME280;27537;57.134;-2.136;2023-03-03T16:14:10;102558.84;;;7.37;100.00
41862;BME280;27537;57.134;-2.136;2023-03-03T16:25:58;102566.47;;;7.08;100.00
41862;BME280;27537;57.134;-2.136;2023-03-03T16:31:18;102522.88;;;6.79;100.00
41862;BME280;27537;57.134;-2.136;2023-03-03T16:36:31;102570.72;;;6.94;100.00
41862;BME280;27537;57.134;-2.136;2023-03-03T16:39:09;102559.47;;;7.01;100.00
41862;BME280;27537;57.134;-2.136;2023-03-03T16:44:29;102485.56;;;6.76;100.00
41862;BME280;27537;57.134;-2.136;2023-03-03T16:47:11;102452.38;;;6.45;100.00
41862;BME280;27537;57.134;-2.136;2023-03-03T16:50:22;102504.59;;;6.64;100.00
41862;BME280;27537;57.134;-2.136;2023-03-03T16:53:17;102561.13;;;6.88;100.00
41862;BME280;27537;57.134;-2.136;2023-03-03T17:06:58;102483.66;;;6.53;100.00
41862;BME280;27537;57.134;-2.136;2023-03-03T17:09:50;102562.00;;;6.84;100.00
41862;BME280;27537;57.134;-2.136;2023-03-03T17:12:37;102515.88;;;6.71;100.00
41862;BME280;27537;57.134;-2.136;2023-03-03T17:15:19;102529.88;;;6.82;100.00
41862;BME280;27537;57.134;-2.136;2023-03-03T17:18:17;102574.25;;;7.02;100.00
41862;BME280;27537;57.134;-2.136;2023-03-03T17:23:58;102580.19;;;6.81;100.00
41862;BME280;27537;57.134;-2.136;2023-03-03T17:29:18;102585.50;;;6.96;100.00
41862;BME280;27537;57.134;-2.136;2023-03-03T17:39:46;102569.81;;;6.86;100.00
41862;BME280;27537;57.134;-2.136;2023-03-03T17:47:46;102570.72;;;6.91;100.00